createdAt,value
2022-08-31T00:02:18.759Z,101621.31
2022-08-31T00:05:22.234Z,101615.59
2022-08-31T00:08:25.323Z,101614.38
2022-08-31T00:11:31.722Z,101620.13
2022-08-31T00:14:34.720Z,101615.84
2022-08-31T00:17:39.017Z,101612.09
2022-08-31T00:20:42.263Z,101603.50
2022-08-31T00:23:45.236Z,101597.44
2022-08-31T00:26:48.695Z,101599.94
2022-08-31T00:29:51.755Z,101600.16
2022-08-31T00:32:57.165Z,101588.53
2022-08-31T00:36:01.868Z,101585.63
2022-08-31T00:39:07.281Z,101574.09
2022-08-31T00:42:10.487Z,101566.31
2022-08-31T00:45:14.364Z,101567.06
2022-08-31T00:48:18.780Z,101562.78
2022-08-31T00:51:21.747Z,101566.72
2022-08-31T00:54:31.352Z,101561.06
2022-08-31T00:57:39.246Z,101562.97
2022-08-31T01:00:45.096Z,101568.34
2022-08-31T01:03:49.698Z,101557.63
2022-08-31T01:06:53.011Z,101572.75
2022-08-31T01:09:57.299Z,101565.09
2022-08-31T01:13:01.898Z,101565.44
2022-08-31T01:16:09.666Z,101555.06
2022-08-31T01:19:22.586Z,101561.00
2022-08-31T01:22:34.119Z,101553.88
2022-08-31T01:25:43.016Z,101554.53
2022-08-31T01:28:46.559Z,101555.25
2022-08-31T01:31:50.681Z,101556.16
2022-08-31T01:34:53.759Z,101550.78
2022-08-31T01:37:58.430Z,101551.41
2022-08-31T01:41:06.610Z,101551.25
2022-08-31T01:44:11.635Z,101542.78
2022-08-31T01:47:14.630Z,101536.97
2022-08-31T01:50:17.831Z,101539.97
2022-08-31T01:53:21.305Z,101537.34
2022-08-31T01:56:32.356Z,101535.06
2022-08-31T01:59:38.086Z,101533.69
2022-08-31T02:02:51.397Z,101542.63
2022-08-31T02:08:58.064Z,101544.59
2022-08-31T02:12:02.629Z,101537.44
2022-08-31T02:15:07.594Z,101534.47
2022-08-31T02:18:12.176Z,101535.31
2022-08-31T02:21:15.577Z,101531.50
2022-08-31T02:24:18.660Z,101532.72
2022-08-31T02:27:22.995Z,101533.41
2022-08-31T02:30:27.088Z,101523.41
2022-08-31T02:33:30.419Z,101527.25
2022-08-31T02:36:35.885Z,101525.78
2022-08-31T02:39:40.634Z,101521.50
2022-08-31T02:42:52.939Z,101519.59
2022-08-31T02:45:59.682Z,101514.25
2022-08-31T02:49:08.758Z,101515.56
2022-08-31T02:52:11.852Z,101513.44
2022-08-31T02:55:15.524Z,101511.88
2022-08-31T02:58:24.106Z,101514.13
2022-08-31T03:01:27.454Z,101516.28
2022-08-31T03:04:31.171Z,101517.47
2022-08-31T03:07:34.352Z,101522.50
2022-08-31T03:10:37.577Z,101520.59
2022-08-31T03:13:42.777Z,101526.31
2022-08-31T03:16:46.287Z,101528.91
2022-08-31T03:20:04.023Z,101507.69
2022-08-31T03:23:07.205Z,101514.00
2022-08-31T03:26:11.767Z,101504.31
2022-08-31T03:29:16.558Z,101500.72
2022-08-31T03:32:31.827Z,101499.34
2022-08-31T03:35:36.642Z,101509.09
2022-08-31T03:38:40.058Z,101503.13
2022-08-31T03:41:43.062Z,101505.63
2022-08-31T03:44:48.698Z,101503.13
2022-08-31T03:47:59.563Z,101512.66
2022-08-31T03:51:02.640Z,101504.16
2022-08-31T03:54:09.733Z,101514.03
2022-08-31T03:57:13.175Z,101513.56
2022-08-31T04:00:17.954Z,101522.16
2022-08-31T04:03:26.234Z,101518.94
2022-08-31T04:06:48.040Z,101520.50
2022-08-31T04:10:16.948Z,101520.50
2022-08-31T04:13:40.231Z,101528.22
2022-08-31T04:17:22.524Z,101528.13
2022-08-31T04:20:35.310Z,101533.81
2022-08-31T04:23:40.467Z,101534.56
2022-08-31T04:26:43.655Z,101548.47
2022-08-31T04:29:46.703Z,101538.44
2022-08-31T04:32:51.612Z,101537.59
2022-08-31T04:35:54.657Z,101543.34
2022-08-31T04:39:00.089Z,101549.75
2022-08-31T04:42:03.136Z,101540.94
2022-08-31T04:45:09.828Z,101545.53
2022-08-31T04:48:14.405Z,101544.03
2022-08-31T04:51:21.788Z,101544.38
2022-08-31T04:54:24.925Z,101539.63
2022-08-31T04:57:31.684Z,101548.28
2022-08-31T05:00:34.795Z,101544.22
2022-08-31T05:03:56.297Z,101536.75
2022-08-31T05:07:00.395Z,101549.44
2022-08-31T05:10:08.305Z,101539.72
2022-08-31T05:13:11.625Z,101540.09
2022-08-31T05:16:16.238Z,101553.13
2022-08-31T05:19:21.388Z,101565.03
2022-08-31T05:22:24.432Z,101565.41
2022-08-31T05:25:29.349Z,101555.03
2022-08-31T05:28:33.487Z,101559.66
2022-08-31T05:31:37.311Z,101545.63
2022-08-31T05:34:41.707Z,101564.41
2022-08-31T05:37:44.789Z,101566.22
2022-08-31T05:40:53.471Z,101565.78
2022-08-31T05:43:56.734Z,101575.09
2022-08-31T05:47:01.340Z,101577.72
2022-08-31T05:50:10.336Z,101575.25
2022-08-31T05:53:16.830Z,101588.00
2022-08-31T05:56:25.420Z,101594.69
2022-08-31T05:59:32.193Z,101605.44
2022-08-31T06:02:36.981Z,101622.91
2022-08-31T06:05:42.096Z,101638.44
2022-08-31T06:08:46.064Z,101650.13
2022-08-31T06:11:49.135Z,101653.88
2022-08-31T06:14:55.340Z,101654.47
2022-08-31T06:17:59.090Z,101665.47
2022-08-31T06:21:09.152Z,101664.91
2022-08-31T06:24:13.116Z,101668.84
2022-08-31T06:27:16.120Z,101677.28
2022-08-31T06:30:22.017Z,101685.28
2022-08-31T06:33:26.234Z,101690.88
2022-08-31T06:36:41.357Z,101692.59
2022-08-31T06:39:57.007Z,101696.19
2022-08-31T06:43:17.562Z,101692.13
2022-08-31T06:46:35.745Z,101703.25
2022-08-31T06:49:45.672Z,101709.91
2022-08-31T06:52:51.319Z,101709.56
2022-08-31T06:55:57.771Z,101727.47
2022-08-31T06:59:19.619Z,101735.63
2022-08-31T07:02:45.053Z,101737.28
2022-08-31T07:05:56.098Z,101736.22
2022-08-31T07:09:05.188Z,101731.28
2022-08-31T07:12:09.257Z,101745.34
2022-08-31T07:15:12.919Z,101755.38
2022-08-31T07:18:18.069Z,101782.47
2022-08-31T07:21:26.247Z,101779.28
2022-08-31T07:24:35.092Z,101823.47
2022-08-31T07:27:39.967Z,101846.84
2022-08-31T07:30:43.017Z,101844.28
2022-08-31T07:33:51.001Z,101849.94
2022-08-31T07:37:13.734Z,101845.06
2022-08-31T07:40:36.058Z,101850.03
2022-08-31T07:43:39.210Z,101856.97
2022-08-31T07:46:42.754Z,101844.84
2022-08-31T07:49:47.722Z,101847.69
2022-08-31T07:53:08.718Z,101858.22
2022-08-31T07:56:25.583Z,101867.47
2022-08-31T07:59:44.086Z,101862.69
2022-08-31T08:02:52.651Z,101886.00
2022-08-31T08:05:58.411Z,101884.50
2022-08-31T08:09:24.366Z,101884.31
2022-08-31T08:13:05.431Z,101886.97
2022-08-31T08:16:34.659Z,101893.75
2022-08-31T08:19:57.126Z,101885.50
2022-08-31T08:23:00.197Z,101886.06
2022-08-31T08:26:21.196Z,101880.81
2022-08-31T08:29:45.475Z,101888.34
2022-08-31T08:32:53.586Z,101893.38
2022-08-31T08:35:59.017Z,101888.09
2022-08-31T08:39:04.640Z,101898.69
2022-08-31T08:42:09.424Z,101894.91
2022-08-31T08:45:13.963Z,101899.66
2022-08-31T08:48:23.127Z,101908.28
2022-08-31T08:51:33.470Z,101902.84
2022-08-31T08:54:42.595Z,101905.63
2022-08-31T08:57:49.547Z,101910.50
2022-08-31T09:00:56.257Z,101913.13
2022-08-31T09:04:08.924Z,101896.31
2022-08-31T09:07:45.035Z,101898.31
2022-08-31T09:11:05.026Z,101905.72
2022-08-31T09:14:28.465Z,101909.59
2022-08-31T09:17:43.533Z,101903.28
2022-08-31T09:21:03.110Z,101900.72
2022-08-31T09:24:10.939Z,101893.69
2022-08-31T09:27:46.818Z,101894.06
2022-08-31T09:30:53.128Z,101895.16
2022-08-31T09:33:57.645Z,101903.75
2022-08-31T09:37:21.578Z,101900.38
2022-08-31T09:40:38.344Z,101898.72
2022-08-31T09:43:41.441Z,101902.25
2022-08-31T09:46:50.334Z,101911.50
2022-08-31T09:49:57.819Z,101902.09
2022-08-31T09:53:42.693Z,101897.47
2022-08-31T09:56:55.416Z,101897.41
2022-08-31T09:59:58.755Z,101889.53
2022-08-31T10:03:13.470Z,101892.25
2022-08-31T10:06:46.700Z,101896.72
2022-08-31T10:09:57.748Z,101895.22
2022-08-31T10:13:05.338Z,101885.44
2022-08-31T10:16:18.264Z,101888.63
2022-08-31T10:19:30.388Z,101888.06
2022-08-31T10:22:41.786Z,101897.94
2022-08-31T10:25:52.970Z,101890.31
2022-08-31T10:28:59.233Z,101881.25
2022-08-31T10:32:10.864Z,101881.00
2022-08-31T10:35:22.191Z,101883.59
2022-08-31T10:38:34.714Z,101882.19
2022-08-31T10:41:44.546Z,101875.03
2022-08-31T10:44:56.881Z,101877.75
2022-08-31T10:48:04.976Z,101877.94
2022-08-31T10:51:20.531Z,101879.47
2022-08-31T10:54:39.158Z,101866.50
2022-08-31T10:57:51.068Z,101871.50
2022-08-31T11:01:01.580Z,101872.25
2022-08-31T11:04:42.867Z,101858.41
2022-08-31T11:07:58.027Z,101864.88
2022-08-31T11:11:06.891Z,101865.53
2022-08-31T11:14:45.259Z,101866.53
2022-08-31T11:18:36.221Z,101862.03
2022-08-31T11:21:58.343Z,101860.25
2022-08-31T11:25:25.203Z,101852.19
2022-08-31T11:28:36.537Z,101852.25
2022-08-31T11:31:40.433Z,101846.50
2022-08-31T11:34:50.688Z,101852.09
2022-08-31T11:37:56.637Z,101848.75
2022-08-31T11:41:03.685Z,101852.25
2022-08-31T11:44:10.587Z,101841.78
2022-08-31T11:47:46.647Z,101843.34
2022-08-31T11:51:07.775Z,101837.72
2022-08-31T11:54:15.146Z,101847.50
2022-08-31T11:57:21.923Z,101848.59
2022-08-31T12:00:46.410Z,101846.84
2022-08-31T12:04:03.669Z,101843.06
2022-08-31T12:07:08.725Z,101836.84
2022-08-31T12:10:34.559Z,101835.78
2022-08-31T12:13:49.820Z,101834.72
2022-08-31T12:17:03.319Z,101824.13
2022-08-31T12:20:13.582Z,101827.56
2022-08-31T12:23:38.173Z,101832.91
2022-08-31T12:26:52.899Z,101817.13
2022-08-31T12:30:18.146Z,101813.44
2022-08-31T12:33:25.407Z,101821.50
2022-08-31T12:36:33.544Z,101826.53
2022-08-31T12:39:36.536Z,101817.38
2022-08-31T12:42:52.959Z,101816.63
2022-08-31T12:46:29.181Z,101812.25
2022-08-31T12:50:06.854Z,101813.75
2022-08-31T12:53:38.251Z,101799.88
2022-08-31T12:56:49.268Z,101807.00
2022-08-31T13:00:02.374Z,101796.56
2022-08-31T13:03:20.983Z,101794.72
2022-08-31T13:06:30.277Z,101797.38
2022-08-31T13:09:35.552Z,101798.81
2022-08-31T13:12:39.946Z,101799.28
2022-08-31T13:15:44.795Z,101795.28
2022-08-31T13:18:48.597Z,101790.38
2022-08-31T13:22:05.251Z,101787.34
2022-08-31T13:25:16.649Z,101786.69
2022-08-31T13:28:28.831Z,101778.34
2022-08-31T13:31:35.976Z,101772.91
2022-08-31T13:34:42.967Z,101775.44
2022-08-31T13:38:04.895Z,101771.91
2022-08-31T13:41:17.133Z,101768.66
2022-08-31T13:44:29.217Z,101774.06
2022-08-31T13:47:48.888Z,101771.09
2022-08-31T13:51:13.480Z,101775.13
2022-08-31T13:54:29.213Z,101767.88
2022-08-31T13:57:35.822Z,101778.06
2022-08-31T14:00:43.951Z,101777.78
2022-08-31T14:03:54.862Z,101768.72
2022-08-31T14:06:58.170Z,101772.38
2022-08-31T14:10:08.084Z,101776.28
2022-08-31T14:13:21.104Z,101766.81
2022-08-31T14:16:35.014Z,101770.44
2022-08-31T14:19:39.083Z,101767.22
2022-08-31T14:22:46.369Z,101764.19
2022-08-31T14:25:51.878Z,101773.75
2022-08-31T14:29:00.127Z,101761.28
2022-08-31T14:32:04.656Z,101768.63
2022-08-31T14:35:12.014Z,101766.84
2022-08-31T14:38:15.454Z,101768.91
2022-08-31T14:41:27.460Z,101763.41
2022-08-31T14:44:35.321Z,101765.72
2022-08-31T14:47:42.553Z,101756.66
2022-08-31T14:50:45.646Z,101757.63
2022-08-31T14:53:49.060Z,101755.19
2022-08-31T14:56:58.124Z,101758.13
2022-08-31T15:00:03.657Z,101761.91
2022-08-31T15:03:08.175Z,101760.03
2022-08-31T15:06:13.597Z,101753.72
2022-08-31T15:09:17.192Z,101755.41
2022-08-31T15:12:21.485Z,101748.47
2022-08-31T15:15:24.707Z,101742.06
2022-08-31T15:18:32.502Z,101740.97
2022-08-31T15:21:37.775Z,101753.00
2022-08-31T15:24:49.587Z,101751.59
2022-08-31T15:27:53.918Z,101753.94
2022-08-31T15:30:57.970Z,101745.19
2022-08-31T15:34:01.037Z,101749.03
2022-08-31T15:37:06.736Z,101751.25
2022-08-31T15:40:11.356Z,101751.50
2022-08-31T15:43:18.782Z,101740.25
2022-08-31T15:46:43.183Z,101734.31
2022-08-31T15:49:45.587Z,101737.91
2022-08-31T15:52:52.151Z,101739.25
2022-08-31T15:55:55.258Z,101720.66
2022-08-31T15:59:01.703Z,101724.63
2022-08-31T16:02:06.940Z,101721.78
2022-08-31T16:05:11.541Z,101724.53
2022-08-31T16:08:15.239Z,101713.13
2022-08-31T16:11:18.494Z,101719.88
2022-08-31T16:14:23.131Z,101710.81
2022-08-31T16:17:26.133Z,101710.88
2022-08-31T16:20:29.994Z,101718.66
2022-08-31T16:23:33.083Z,101718.47
2022-08-31T16:26:40.093Z,101707.31
2022-08-31T16:29:45.677Z,101715.34
2022-08-31T16:32:52.203Z,101714.44
2022-08-31T16:35:55.877Z,101705.91
2022-08-31T16:39:00.456Z,101706.09
2022-08-31T16:42:03.833Z,101697.75
2022-08-31T16:45:10.886Z,101712.34
2022-08-31T16:48:31.917Z,101706.72
2022-08-31T16:51:38.491Z,101716.03
2022-08-31T16:54:44.954Z,101725.50
2022-08-31T16:57:48.098Z,101713.59
2022-08-31T17:00:55.434Z,101719.81
2022-08-31T17:04:01.600Z,101717.31
2022-08-31T17:07:05.907Z,101717.38
2022-08-31T17:10:10.473Z,101720.75
2022-08-31T17:13:15.290Z,101716.97
2022-08-31T17:16:22.100Z,101720.47
2022-08-31T17:19:26.144Z,101723.97
2022-08-31T17:22:33.239Z,101722.88
2022-08-31T17:25:37.127Z,101729.75
2022-08-31T17:28:40.377Z,101726.28
2022-08-31T17:31:46.799Z,101723.81
2022-08-31T17:34:52.005Z,101726.72
2022-08-31T17:37:56.459Z,101723.84
2022-08-31T17:41:06.951Z,101723.59
2022-08-31T17:44:16.592Z,101726.94
2022-08-31T17:47:22.883Z,101727.50
2022-08-31T17:50:25.998Z,101728.06
2022-08-31T17:53:29.050Z,101737.41
2022-08-31T17:56:36.916Z,101738.41
2022-08-31T17:59:42.869Z,101742.13
2022-08-31T18:02:49.193Z,101741.84
2022-08-31T18:05:52.228Z,101742.56
2022-08-31T18:08:55.853Z,101740.88
2022-08-31T18:11:59.559Z,101740.88
2022-08-31T18:15:02.934Z,101742.28
2022-08-31T18:18:07.506Z,101748.78
2022-08-31T18:21:13.503Z,101756.16
2022-08-31T18:24:16.607Z,101759.47
2022-08-31T18:27:20.898Z,101760.84
2022-08-31T18:30:23.929Z,101758.78
2022-08-31T18:33:30.796Z,101768.94
2022-08-31T18:36:39.097Z,101764.75
2022-08-31T18:40:02.341Z,101769.16
2022-08-31T18:43:25.084Z,101768.00
2022-08-31T18:46:28.241Z,101773.06
2022-08-31T18:49:37.384Z,101764.91
2022-08-31T18:52:46.707Z,101772.53
2022-08-31T18:55:51.474Z,101773.16
2022-08-31T18:58:54.538Z,101777.88
2022-08-31T19:01:57.693Z,101778.00
2022-08-31T19:05:02.145Z,101781.44
2022-08-31T19:08:05.319Z,101777.56
2022-08-31T19:11:08.956Z,101773.47
2022-08-31T19:14:12.479Z,101782.06
2022-08-31T19:17:15.723Z,101783.28
2022-08-31T19:20:21.397Z,101791.34
2022-08-31T19:23:24.786Z,101779.44
2022-08-31T19:26:31.161Z,101779.97
2022-08-31T19:29:34.622Z,101778.94
2022-08-31T19:32:37.694Z,101786.66
2022-08-31T19:35:42.044Z,101782.44
2022-08-31T19:38:46.216Z,101786.00
2022-08-31T19:41:51.024Z,101790.44
2022-08-31T19:45:22.853Z,101780.69
2022-08-31T19:48:23.384Z,101777.84
2022-08-31T19:51:31.514Z,101781.69
2022-08-31T19:54:39.103Z,101778.63
2022-08-31T19:57:43.499Z,101778.81
2022-08-31T20:00:48.049Z,101775.44
2022-08-31T20:03:52.106Z,101784.09
2022-08-31T20:07:00.521Z,101768.44
2022-08-31T20:10:05.751Z,101775.28
2022-08-31T20:13:09.940Z,101771.94
2022-08-31T20:16:14.169Z,101779.97
2022-08-31T20:19:20.780Z,101773.28
2022-08-31T20:22:26.164Z,101775.66
2022-08-31T20:25:32.901Z,101778.22
2022-08-31T20:28:36.505Z,101780.63
2022-08-31T20:31:43.233Z,101768.41
2022-08-31T20:34:48.262Z,101766.88
2022-08-31T20:37:52.614Z,101767.16
2022-08-31T20:40:55.946Z,101768.59
2022-08-31T20:44:10.450Z,101767.28
2022-08-31T20:47:31.480Z,101766.88
2022-08-31T20:50:35.254Z,101775.03
2022-08-31T20:53:42.775Z,101772.66
2022-08-31T20:56:46.784Z,101779.13
2022-08-31T20:59:51.208Z,101773.97
2022-08-31T21:02:55.318Z,101777.34
2022-08-31T21:06:02.920Z,101779.34
2022-08-31T21:09:08.216Z,101785.81
2022-08-31T21:12:17.799Z,101785.09
2022-08-31T21:15:22.395Z,101785.81
2022-08-31T21:18:29.567Z,101788.22
2022-08-31T21:21:32.574Z,101800.66
2022-08-31T21:24:39.158Z,101788.91
2022-08-31T21:27:42.928Z,101783.41
2022-08-31T21:30:49.069Z,101795.84
2022-08-31T21:33:53.927Z,101781.75
2022-08-31T21:36:56.888Z,101796.09
2022-08-31T21:40:01.227Z,101786.06
2022-08-31T21:43:05.284Z,101777.41
2022-08-31T21:46:12.786Z,101788.22
2022-08-31T21:49:16.416Z,101789.19
2022-08-31T21:52:19.379Z,101791.81
2022-08-31T21:55:23.677Z,101795.88
2022-08-31T21:58:31.191Z,101798.50
2022-08-31T22:01:35.868Z,101795.88
2022-08-31T22:04:42.460Z,101794.19
2022-08-31T22:07:45.433Z,101790.16
2022-08-31T22:10:50.126Z,101799.00
2022-08-31T22:13:56.944Z,101796.63
2022-08-31T22:17:03.743Z,101798.06
2022-08-31T22:20:13.038Z,101794.69
2022-08-31T22:23:16.329Z,101801.16
2022-08-31T22:26:21.886Z,101796.97
2022-08-31T22:29:27.821Z,101801.03
2022-08-31T22:32:30.901Z,101798.66
2022-08-31T22:35:39.799Z,101802.09
2022-08-31T22:38:43.913Z,101805.94
2022-08-31T22:41:48.786Z,101802.38
2022-08-31T22:44:52.059Z,101801.91
2022-08-31T22:47:55.102Z,101800.22
2022-08-31T22:50:58.079Z,101805.00
2022-08-31T22:54:01.239Z,101795.69
2022-08-31T22:57:06.021Z,101800.44
2022-08-31T23:00:13.157Z,101799.72
2022-08-31T23:03:16.547Z,101801.38
2022-08-31T23:06:23.200Z,101807.00
2022-08-31T23:09:30.786Z,101810.59
2022-08-31T23:12:35.120Z,101804.50
2022-08-31T23:15:38.316Z,101801.59
2022-08-31T23:18:44.108Z,101805.69
2022-08-31T23:21:56.684Z,101801.59
2022-08-31T23:25:00.703Z,101800.16
2022-08-31T23:28:05.329Z,101797.66
2022-08-31T23:31:09.790Z,101796.59
2022-08-31T23:34:13.206Z,101795.78
2022-08-31T23:37:17.651Z,101790.84
2022-08-31T23:40:20.857Z,101785.94
2022-08-31T23:43:25.917Z,101784.63
2022-08-31T23:46:29.847Z,101786.44
2022-08-31T23:49:32.932Z,101786.28
2022-08-31T23:52:41.264Z,101784.16
2022-08-31T23:55:45.205Z,101791.91
2022-08-31T23:58:49.487Z,101797.03
